createdAt,value
2018-06-19T00:00:26.778Z,62.92
2018-06-19T00:01:26.595Z,62.9
2018-06-19T00:02:26.942Z,62.94
2018-06-19T00:03:26.691Z,62.92
2018-06-19T00:04:26.701Z,62.92
2018-06-19T00:05:26.716Z,62.92
2018-06-19T00:06:26.724Z,62.95
2018-06-19T00:07:26.599Z,62.94
2018-06-19T00:08:26.580Z,62.94
2018-06-19T00:09:26.684Z,62.93
2018-06-19T00:10:26.810Z,62.9
2018-06-19T00:11:26.655Z,62.9
2018-06-19T00:12:26.661Z,62.91
2018-06-19T00:13:26.740Z,62.96
2018-06-19T00:14:26.786Z,62.93
2018-06-19T00:15:26.596Z,62.95
2018-06-19T00:16:26.681Z,62.96
2018-06-19T00:17:26.807Z,62.95
2018-06-19T00:18:26.783Z,62.94
2018-06-19T00:19:26.593Z,62.99
2018-06-19T00:20:26.618Z,62.94
2018-06-19T00:21:26.519Z,62.95
2018-06-19T00:22:26.790Z,63
2018-06-19T00:23:26.737Z,62.96
2018-06-19T00:24:26.570Z,62.98
2018-06-19T00:25:26.810Z,63.02
2018-06-19T00:26:26.782Z,62.99
2018-06-19T00:27:27.095Z,62.95
2018-06-19T00:28:26.790Z,62.97
2018-06-19T00:29:26.639Z,62.96
2018-06-19T00:30:26.539Z,62.96
2018-06-19T00:31:26.626Z,62.95
2018-06-19T00:32:26.551Z,62.94
2018-06-19T00:33:26.515Z,62.96
2018-06-19T00:34:26.737Z,62.99
2018-06-19T00:35:26.679Z,62.94
2018-06-19T00:36:26.613Z,62.95
2018-06-19T00:37:26.525Z,62.99
2018-06-19T00:38:26.709Z,62.99
2018-06-19T00:39:26.651Z,63.03
2018-06-19T00:40:26.804Z,62.96
2018-06-19T00:41:26.637Z,62.98
2018-06-19T00:42:26.554Z,62.98
2018-06-19T00:43:26.747Z,63
2018-06-19T00:44:26.725Z,62.97
2018-06-19T00:45:26.716Z,62.97
2018-06-19T00:46:26.560Z,62.98
2018-06-19T00:47:26.616Z,62.98
2018-06-19T00:48:26.677Z,62.97
2018-06-19T00:49:26.686Z,63.02
2018-06-19T00:50:26.558Z,63
2018-06-19T00:51:26.467Z,63
2018-06-19T00:52:26.643Z,62.98
2018-06-19T00:53:26.695Z,63.02
2018-06-19T00:54:26.557Z,62.99
2018-06-19T00:55:26.736Z,63
2018-06-19T00:56:27.214Z,62.99
2018-06-19T00:57:26.707Z,63.02
2018-06-19T00:58:26.560Z,63
2018-06-19T00:59:26.653Z,63.02
2018-06-19T01:00:26.556Z,63.02
2018-06-19T01:01:26.725Z,63.02
2018-06-19T01:02:26.721Z,63.02
2018-06-19T01:03:26.562Z,63.04
2018-06-19T01:04:26.668Z,63.04
2018-06-19T01:05:26.607Z,63.04
2018-06-19T01:06:26.654Z,62.99
2018-06-19T01:07:26.705Z,63.01
2018-06-19T01:08:27.026Z,63.05
2018-06-19T01:09:44.533Z,63.04
2018-06-19T01:10:26.667Z,63.02
2018-06-19T01:11:26.582Z,63.01
2018-06-19T01:12:26.529Z,63
2018-06-19T01:13:26.838Z,63.02
2018-06-19T01:14:26.568Z,63.05
2018-06-19T01:15:26.689Z,63.02
2018-06-19T01:16:26.573Z,63
2018-06-19T01:17:26.975Z,63.06
2018-06-19T01:18:26.836Z,63.02
2018-06-19T01:19:26.516Z,63.01
2018-06-19T01:20:26.796Z,63.02
2018-06-19T01:21:36.689Z,63.05
2018-06-19T01:22:26.731Z,63.05
2018-06-19T01:23:26.766Z,63.03
2018-06-19T01:24:26.621Z,63.02
2018-06-19T01:25:26.770Z,63.04
2018-06-19T01:26:27.067Z,63
2018-06-19T01:27:26.557Z,63.03
2018-06-19T01:28:26.561Z,63.04
2018-06-19T01:29:26.689Z,63.03
2018-06-19T01:30:26.605Z,63.04
2018-06-19T01:31:26.793Z,63.06
2018-06-19T01:32:26.757Z,63.02
2018-06-19T01:33:26.551Z,63.03
2018-06-19T01:34:26.646Z,63.03
2018-06-19T01:35:26.893Z,63.05
2018-06-19T01:36:26.667Z,63.02
2018-06-19T01:37:26.678Z,63.02
2018-06-19T01:38:26.686Z,63.05
2018-06-19T01:39:26.826Z,63.05
2018-06-19T01:40:26.621Z,63.05
2018-06-19T01:41:26.761Z,63.04
2018-06-19T01:42:26.688Z,63.08
2018-06-19T01:43:26.983Z,63.04
2018-06-19T01:44:26.780Z,63.04
2018-06-19T01:45:26.538Z,63.06
2018-06-19T01:46:26.575Z,63.05
2018-06-19T01:47:26.589Z,63.05
2018-06-19T01:48:26.625Z,63.05
2018-06-19T01:49:26.763Z,63.01
2018-06-19T01:50:26.467Z,63.05
2018-06-19T01:51:26.828Z,63.04
2018-06-19T01:52:26.655Z,63.07
2018-06-19T01:53:26.459Z,63.06
2018-06-19T01:54:26.595Z,63.06
2018-06-19T01:55:26.494Z,63.07
2018-06-19T01:56:26.717Z,63.04
2018-06-19T01:57:26.736Z,63.06
2018-06-19T01:58:26.716Z,63.07
2018-06-19T01:59:26.685Z,63.07
2018-06-19T02:00:26.585Z,63.07
2018-06-19T02:01:26.906Z,63.04
2018-06-19T02:02:26.447Z,63.06
2018-06-19T02:03:26.700Z,63.08
2018-06-19T02:04:26.551Z,63.08
2018-06-19T02:05:26.661Z,63.05
2018-06-19T02:06:26.501Z,63.08
2018-06-19T02:07:26.725Z,63.06
2018-06-19T02:08:26.643Z,63.06
2018-06-19T02:09:26.740Z,63.07
2018-06-19T02:10:26.625Z,63.06
2018-06-19T02:11:26.562Z,63.08
2018-06-19T02:12:26.632Z,63.01
2018-06-19T02:13:26.569Z,63.07
2018-06-19T02:14:26.788Z,63.06
2018-06-19T02:15:26.562Z,63.1
2018-06-19T02:16:26.643Z,63.07
2018-06-19T02:17:26.602Z,63.08
2018-06-19T02:18:26.511Z,63.09
2018-06-19T02:19:26.537Z,63.09
2018-06-19T02:20:26.719Z,63.06
2018-06-19T02:21:26.875Z,63.08
2018-06-19T02:22:26.706Z,63.05
2018-06-19T02:23:26.571Z,63.07
2018-06-19T02:24:27.007Z,63.06
2018-06-19T02:25:26.712Z,63.07
2018-06-19T02:26:26.699Z,63.08
2018-06-19T02:27:26.538Z,63.07
2018-06-19T02:28:26.729Z,63.05
2018-06-19T02:29:26.541Z,63.09
2018-06-19T02:30:26.467Z,63.08
2018-06-19T02:31:26.584Z,63.06
2018-06-19T02:32:26.773Z,63.05
2018-06-19T02:33:26.989Z,63.07
2018-06-19T02:34:26.548Z,63.09
2018-06-19T02:35:26.474Z,63.07
2018-06-19T02:36:26.685Z,63.11
2018-06-19T02:37:26.631Z,63.1
2018-06-19T02:38:26.613Z,63.07
2018-06-19T02:39:26.532Z,63.06
2018-06-19T02:40:26.632Z,63.07
2018-06-19T02:41:26.837Z,63.12
2018-06-19T02:42:26.588Z,63.09
2018-06-19T02:43:26.757Z,63.07
2018-06-19T02:44:26.774Z,63.11
2018-06-19T02:45:26.545Z,63.09
2018-06-19T02:46:26.592Z,63.09
2018-06-19T02:47:26.501Z,63.1
2018-06-19T02:48:26.624Z,63.08
2018-06-19T02:49:26.649Z,63.09
2018-06-19T02:50:26.826Z,63.07
2018-06-19T02:51:26.640Z,63.09
2018-06-19T02:52:26.632Z,63.11
2018-06-19T02:53:26.735Z,63.12
2018-06-19T02:54:26.707Z,63.07
2018-06-19T02:55:26.553Z,63.12
2018-06-19T02:56:26.655Z,63.11
2018-06-19T02:57:26.668Z,63.14
2018-06-19T02:58:26.783Z,63.11
2018-06-19T02:59:26.584Z,63.11
2018-06-19T03:00:27.417Z,63.09
2018-06-19T03:01:26.607Z,63.11
2018-06-19T03:02:26.667Z,63.07
2018-06-19T03:03:26.605Z,63.11
2018-06-19T03:04:26.795Z,63.11
2018-06-19T03:05:26.397Z,63.1
2018-06-19T03:06:26.670Z,63.09
2018-06-19T03:07:26.782Z,63.11
2018-06-19T03:08:26.578Z,63.11
2018-06-19T03:09:26.672Z,63.11
2018-06-19T03:10:26.586Z,63.11
2018-06-19T03:11:26.703Z,63.1
2018-06-19T03:12:26.634Z,63.1
2018-06-19T03:13:26.568Z,63.11
2018-06-19T03:14:26.503Z,63.1
2018-06-19T03:15:26.752Z,63.13
2018-06-19T03:16:26.768Z,63.11
2018-06-19T03:17:26.666Z,63.07
2018-06-19T03:18:26.731Z,63.1
2018-06-19T03:19:26.462Z,63.12
2018-06-19T03:20:26.698Z,63.08
2018-06-19T03:21:26.583Z,63.08
2018-06-19T03:22:26.607Z,63.11
2018-06-19T03:23:26.474Z,63.1
2018-06-19T03:24:26.727Z,63.11
2018-06-19T03:25:26.570Z,63.12
2018-06-19T03:26:26.634Z,63.15
2018-06-19T03:27:26.651Z,63.1
2018-06-19T03:28:26.611Z,63.1
2018-06-19T03:29:26.680Z,63.12
2018-06-19T03:30:27.726Z,63.07
2018-06-19T03:31:26.623Z,63.1
2018-06-19T03:32:26.546Z,63.12
2018-06-19T03:33:26.670Z,63.11
2018-06-19T03:34:26.541Z,63.12
2018-06-19T03:35:26.536Z,63.13
2018-06-19T03:36:26.785Z,63.15
2018-06-19T03:37:26.831Z,63.13
2018-06-19T03:38:26.592Z,63.15
2018-06-19T03:39:26.511Z,63.14
2018-06-19T03:40:26.591Z,63.1
2018-06-19T03:41:26.476Z,63.11
2018-06-19T03:42:26.819Z,63.14
2018-06-19T03:43:26.653Z,63.12
2018-06-19T03:44:26.840Z,63.13
2018-06-19T03:45:26.739Z,63.11
2018-06-19T03:46:26.616Z,63.14
2018-06-19T03:47:26.586Z,63.14
2018-06-19T03:48:26.600Z,63.13
2018-06-19T03:49:26.567Z,63.13
2018-06-19T03:50:26.636Z,63.13
2018-06-19T03:51:26.797Z,63.11
2018-06-19T03:52:26.692Z,63.15
2018-06-19T03:53:26.742Z,63.15
2018-06-19T03:54:26.792Z,63.12
2018-06-19T03:55:26.560Z,63.15
2018-06-19T03:56:26.553Z,63.13
2018-06-19T03:57:26.877Z,63.16
2018-06-19T03:58:26.991Z,63.12
2018-06-19T03:59:26.458Z,63.16
2018-06-19T04:00:26.744Z,63.15
2018-06-19T04:01:36.800Z,63.16
2018-06-19T04:02:26.574Z,63.13
2018-06-19T04:03:26.638Z,63.15
2018-06-19T04:04:26.447Z,63.14
2018-06-19T04:05:26.512Z,63.13
2018-06-19T04:06:26.494Z,63.18
2018-06-19T04:07:26.686Z,63.16
2018-06-19T04:08:26.552Z,63.16
2018-06-19T04:09:26.722Z,63.14
2018-06-19T04:10:26.921Z,63.15
2018-06-19T04:11:26.663Z,63.17
2018-06-19T04:12:26.700Z,63.14
2018-06-19T04:13:26.446Z,63.16
2018-06-19T04:14:26.451Z,63.13
2018-06-19T04:15:26.713Z,63.14
2018-06-19T04:16:26.514Z,63.15
2018-06-19T04:17:26.510Z,63.12
2018-06-19T04:18:26.712Z,63.16
2018-06-19T04:19:26.728Z,63.17
2018-06-19T04:20:26.600Z,63.2
2018-06-19T04:21:26.484Z,63.17
2018-06-19T04:22:26.605Z,63.17
2018-06-19T04:23:26.527Z,63.17
2018-06-19T04:24:26.750Z,63.14
2018-06-19T04:25:26.659Z,63.14
2018-06-19T04:26:26.630Z,63.16
2018-06-19T04:27:26.679Z,63.16
2018-06-19T04:28:26.490Z,63.16
2018-06-19T04:29:26.493Z,63.17
2018-06-19T04:30:26.485Z,63.17
2018-06-19T04:31:26.467Z,63.18
2018-06-19T04:32:26.610Z,63.17
2018-06-19T04:33:27.147Z,63.13
2018-06-19T04:34:26.509Z,63.15
2018-06-19T04:35:26.709Z,63.11
2018-06-19T04:36:26.696Z,63.17
2018-06-19T04:37:26.563Z,63.19
2018-06-19T04:38:26.612Z,63.18
2018-06-19T04:39:26.699Z,63.2
2018-06-19T04:40:26.682Z,63.17
2018-06-19T04:41:26.716Z,63.16
2018-06-19T04:42:26.537Z,63.14
2018-06-19T04:43:26.709Z,63.14
2018-06-19T04:44:26.597Z,63.17
2018-06-19T04:45:26.618Z,63.16
2018-06-19T04:46:26.598Z,63.17
2018-06-19T04:47:26.586Z,63.16
2018-06-19T04:48:26.587Z,63.19
2018-06-19T04:49:26.845Z,63.16
2018-06-19T04:50:26.528Z,63.16
2018-06-19T04:51:26.445Z,63.17
2018-06-19T04:52:26.529Z,63.17
2018-06-19T04:53:26.511Z,63.18
2018-06-19T04:54:26.476Z,63.13
2018-06-19T04:55:26.505Z,63.18
2018-06-19T04:56:26.690Z,63.17
2018-06-19T04:57:26.807Z,63.17
2018-06-19T04:58:26.680Z,63.17
2018-06-19T04:59:26.602Z,63.16
2018-06-19T05:00:26.430Z,63.14
2018-06-19T05:01:26.443Z,63.17
2018-06-19T05:02:26.563Z,63.13
2018-06-19T05:03:27.045Z,63.17
2018-06-19T05:04:26.440Z,63.16
2018-06-19T05:05:26.650Z,63.16
2018-06-19T05:06:26.686Z,63.19
2018-06-19T05:07:26.591Z,63.17
2018-06-19T05:08:26.495Z,63.15
2018-06-19T05:09:26.501Z,63.17
2018-06-19T05:10:26.565Z,63.17
2018-06-19T05:11:26.803Z,63.16
2018-06-19T05:12:26.545Z,63.17
2018-06-19T05:13:26.559Z,63.14
2018-06-19T05:14:26.625Z,63.11
2018-06-19T05:15:26.558Z,63.17
2018-06-19T05:16:26.616Z,63.19
2018-06-19T05:17:26.605Z,63.15
2018-06-19T05:18:26.475Z,63.17
2018-06-19T05:19:26.619Z,63.2
2018-06-19T05:20:26.530Z,63.16
2018-06-19T05:21:26.554Z,63.14
2018-06-19T05:22:26.622Z,63.15
2018-06-19T05:23:26.416Z,63.17
2018-06-19T05:24:26.473Z,63.18
2018-06-19T05:25:26.694Z,63.16
2018-06-19T05:26:26.651Z,63.15
2018-06-19T05:27:26.423Z,63.16
2018-06-19T05:28:26.632Z,63.16
2018-06-19T05:29:26.668Z,63.16
2018-06-19T05:30:26.908Z,63.2
2018-06-19T05:31:26.446Z,63.17
2018-06-19T05:32:26.817Z,63.17
2018-06-19T05:33:26.531Z,63.14
2018-06-19T05:34:26.676Z,63.14
2018-06-19T05:35:26.678Z,63.18
2018-06-19T05:36:26.559Z,63.13
2018-06-19T05:37:26.451Z,63.18
2018-06-19T05:38:26.508Z,63.14
2018-06-19T05:39:26.597Z,63.13
2018-06-19T05:40:26.603Z,63.19
2018-06-19T05:41:26.670Z,63.17
2018-06-19T05:42:26.496Z,63.17
2018-06-19T05:43:26.507Z,63.13
2018-06-19T05:44:26.556Z,63.13
2018-06-19T05:45:26.438Z,63.16
2018-06-19T05:46:26.585Z,63.18
2018-06-19T05:47:26.488Z,63.13
2018-06-19T05:48:26.549Z,63.13
2018-06-19T05:49:26.555Z,63.16
2018-06-19T05:50:26.549Z,63.16
2018-06-19T05:51:26.721Z,63.11
2018-06-19T05:52:26.650Z,63.19
2018-06-19T05:53:26.477Z,63.12
2018-06-19T05:54:26.504Z,63.15
2018-06-19T05:55:26.604Z,63.18
2018-06-19T05:56:26.613Z,63.14
2018-06-19T05:57:26.827Z,63.18
2018-06-19T05:58:26.401Z,63.13
2018-06-19T05:59:26.612Z,63.13
2018-06-19T06:00:27.773Z,63.14
2018-06-19T06:01:26.577Z,63.13
2018-06-19T06:02:26.611Z,63.17
2018-06-19T06:03:26.534Z,63.17
2018-06-19T06:04:26.674Z,63.14
2018-06-19T06:05:26.603Z,63.17
2018-06-19T06:06:26.697Z,63.17
2018-06-19T06:07:26.590Z,63.19
2018-06-19T06:08:26.826Z,63.17
2018-06-19T06:09:26.557Z,63.15
2018-06-19T06:10:27.012Z,63.15
2018-06-19T06:11:26.681Z,63.15
2018-06-19T06:12:26.467Z,63.16
2018-06-19T06:13:26.790Z,63.17
2018-06-19T06:14:26.615Z,63.17
2018-06-19T06:15:26.599Z,63.18
2018-06-19T06:16:27.384Z,63.16
2018-06-19T06:17:26.757Z,63.17
2018-06-19T06:18:26.788Z,63.14
2018-06-19T06:19:26.678Z,63.18
2018-06-19T06:20:26.549Z,63.16
2018-06-19T06:21:26.685Z,63.13
2018-06-19T06:22:26.732Z,63.17
2018-06-19T06:23:26.739Z,63.13
2018-06-19T06:24:26.650Z,63.38
2018-06-19T06:25:26.681Z,63.28
2018-06-19T06:26:26.494Z,63.22
2018-06-19T06:27:26.728Z,63.27
2018-06-19T06:28:26.574Z,63.18
2018-06-19T06:29:26.406Z,63.18
2018-06-19T06:30:26.533Z,63.23
2018-06-19T06:31:28.027Z,63.25
2018-06-19T06:32:26.443Z,63.21
2018-06-19T06:33:26.614Z,63.2
2018-06-19T06:34:26.552Z,63.21
2018-06-19T06:35:26.622Z,63.25
2018-06-19T06:36:26.607Z,63.25
2018-06-19T06:37:26.755Z,63.28
2018-06-19T06:38:26.488Z,63.24
2018-06-19T06:39:26.570Z,63.24
2018-06-19T06:40:26.635Z,63.23
2018-06-19T06:41:26.780Z,63.23
2018-06-19T06:42:26.860Z,63.23
2018-06-19T06:43:26.665Z,63.25
2018-06-19T06:44:26.509Z,63.21
2018-06-19T06:45:26.810Z,63.25
2018-06-19T06:46:26.764Z,63.23
2018-06-19T06:47:26.458Z,63.23
2018-06-19T06:48:26.524Z,63.25
2018-06-19T06:49:26.644Z,63.16
2018-06-19T06:50:27.931Z,63.17
2018-06-19T06:51:26.714Z,63.2
2018-06-19T06:52:26.561Z,63.21
2018-06-19T06:53:26.677Z,63.23
2018-06-19T06:54:26.531Z,63.2
2018-06-19T06:55:26.619Z,63.27
2018-06-19T06:56:26.588Z,63.23
2018-06-19T06:57:26.403Z,63.2
2018-06-19T06:58:26.573Z,63.22
2018-06-19T06:59:26.638Z,63.22
2018-06-19T07:00:26.624Z,63.19
2018-06-19T07:01:26.629Z,63.24
2018-06-19T07:02:26.409Z,63.2
2018-06-19T07:03:26.679Z,63.19
2018-06-19T07:04:26.509Z,63.2
2018-06-19T07:05:26.483Z,63.21
2018-06-19T07:06:26.439Z,63.19
2018-06-19T07:07:26.734Z,63.22
2018-06-19T07:08:26.632Z,63.19
2018-06-19T07:09:26.581Z,63.18
2018-06-19T07:10:26.510Z,63.23
2018-06-19T07:11:26.543Z,63.21
2018-06-19T07:12:26.664Z,63.2
2018-06-19T07:13:27.186Z,63.22
2018-06-19T07:14:26.624Z,63.21
2018-06-19T07:15:26.474Z,63.2
2018-06-19T07:16:26.782Z,63.19
2018-06-19T07:17:26.433Z,63.22
2018-06-19T07:18:26.499Z,63.19
2018-06-19T07:19:27.049Z,63.23
2018-06-19T07:20:26.771Z,63.18
2018-06-19T07:21:26.545Z,63.21
2018-06-19T07:22:27.055Z,63.22
2018-06-19T07:23:26.630Z,63.16
2018-06-19T07:24:26.620Z,63.21
2018-06-19T07:25:26.508Z,63.2
2018-06-19T07:26:26.544Z,63.2
2018-06-19T07:27:26.577Z,63.2
2018-06-19T07:28:26.540Z,63.2
2018-06-19T07:29:26.510Z,63.2
2018-06-19T07:30:26.620Z,63.19
2018-06-19T07:31:26.391Z,63.23
2018-06-19T07:32:26.535Z,63.18
2018-06-19T07:33:26.578Z,63.2
2018-06-19T07:34:26.647Z,63.2
2018-06-19T07:35:26.418Z,63.22
2018-06-19T07:36:26.521Z,63.22
2018-06-19T07:37:26.656Z,63.18
2018-06-19T07:38:27.832Z,63.2
2018-06-19T07:39:26.813Z,63.17
2018-06-19T07:40:26.640Z,63.2
2018-06-19T07:41:26.746Z,63.22
2018-06-19T07:42:26.607Z,63.22
2018-06-19T07:43:26.767Z,63.22
2018-06-19T07:44:26.487Z,63.16
2018-06-19T07:45:26.438Z,63.21
2018-06-19T07:46:26.714Z,63.19
2018-06-19T07:47:26.503Z,63.21
2018-06-19T07:48:26.694Z,63.19
2018-06-19T07:49:27.005Z,63.21
2018-06-19T07:50:26.592Z,63.18
2018-06-19T07:51:26.691Z,63.21
2018-06-19T07:52:26.831Z,63.18
2018-06-19T07:53:26.934Z,63.2
2018-06-19T07:54:27.088Z,63.18
2018-06-19T07:55:27.252Z,63.21
2018-06-19T07:56:26.941Z,63.21
2018-06-19T07:57:26.779Z,63.17
2018-06-19T07:58:26.584Z,63.2
2018-06-19T07:59:26.526Z,63.18
2018-06-19T08:00:26.426Z,63.18
2018-06-19T08:01:26.557Z,63.21
2018-06-19T08:02:26.436Z,63.21
2018-06-19T08:03:26.560Z,63.16
2018-06-19T08:04:26.641Z,63.21
2018-06-19T08:05:26.473Z,63.21
2018-06-19T08:06:26.711Z,63.2
2018-06-19T08:07:26.601Z,63.22
2018-06-19T08:08:26.500Z,63.19
2018-06-19T08:09:26.727Z,63.16
2018-06-19T08:10:26.641Z,63.2
2018-06-19T08:11:26.405Z,63.17
2018-06-19T08:12:26.578Z,63.18
2018-06-19T08:13:27.109Z,63.17
2018-06-19T08:14:26.512Z,63.18
2018-06-19T08:15:26.646Z,63.17
2018-06-19T08:16:26.626Z,63.18
2018-06-19T08:17:26.665Z,63.2
2018-06-19T08:18:26.592Z,63.17
2018-06-19T08:19:26.542Z,63.18
2018-06-19T08:20:26.451Z,63.18
2018-06-19T08:21:26.587Z,63.21
2018-06-19T08:22:26.526Z,63.17
2018-06-19T08:23:26.634Z,63.18
2018-06-19T08:24:26.653Z,63.2
2018-06-19T08:25:26.770Z,63.21
2018-06-19T08:26:26.620Z,63.21
2018-06-19T08:27:26.607Z,63.22
2018-06-19T08:28:26.467Z,63.2
2018-06-19T08:29:26.381Z,63.23
2018-06-19T08:30:26.537Z,63.21
2018-06-19T08:31:26.709Z,63.21
2018-06-19T08:32:26.475Z,63.19
2018-06-19T08:33:26.595Z,63.17
2018-06-19T08:34:26.479Z,63.18
2018-06-19T08:35:26.375Z,63.14
2018-06-19T08:36:26.901Z,63.2
2018-06-19T08:37:26.393Z,63.18
2018-06-19T08:38:26.302Z,63.17
2018-06-19T08:39:26.579Z,63.19
2018-06-19T08:40:26.364Z,63.18
2018-06-19T08:41:26.594Z,63.22
2018-06-19T08:42:26.582Z,63.18
2018-06-19T08:43:26.450Z,63.18
2018-06-19T08:44:26.559Z,63.2
2018-06-19T08:45:26.495Z,63.18
2018-06-19T08:46:26.695Z,63.2
2018-06-19T08:47:26.409Z,63.22
2018-06-19T08:48:26.643Z,63.16
2018-06-19T08:49:26.594Z,63.18
2018-06-19T08:50:26.474Z,63.23
2018-06-19T08:51:26.455Z,63.17
2018-06-19T08:52:26.430Z,63.18
2018-06-19T08:53:26.452Z,63.21
2018-06-19T08:54:26.656Z,63.21
2018-06-19T08:55:26.881Z,63.21
2018-06-19T08:56:27.147Z,63.19
2018-06-19T08:57:26.666Z,63.18
2018-06-19T08:58:26.784Z,63.22
2018-06-19T08:59:27.021Z,63.21
2018-06-19T09:00:26.450Z,63.21
2018-06-19T09:01:26.593Z,63.18
2018-06-19T09:02:26.496Z,63.18
2018-06-19T09:03:26.500Z,63.23
2018-06-19T09:04:26.808Z,63.22
2018-06-19T09:05:26.504Z,63.21
2018-06-19T09:06:26.451Z,63.2
2018-06-19T09:07:26.570Z,63.18
2018-06-19T09:08:26.364Z,63.2
2018-06-19T09:09:26.582Z,63.21
2018-06-19T09:10:26.465Z,63.21
2018-06-19T09:11:26.560Z,63.17
2018-06-19T09:12:26.716Z,63.19
2018-06-19T09:13:27.007Z,63.21
2018-06-19T09:14:26.410Z,63.21
2018-06-19T09:15:26.561Z,63.21
2018-06-19T09:16:26.327Z,63.21
2018-06-19T09:17:26.548Z,63.19
2018-06-19T09:18:26.601Z,63.18
2018-06-19T09:19:26.519Z,63.21
2018-06-19T09:20:27.157Z,63.22
2018-06-19T09:21:26.463Z,63.18
2018-06-19T09:22:26.621Z,63.18
2018-06-19T09:23:26.356Z,63.17
2018-06-19T09:24:26.453Z,63.22
2018-06-19T09:25:26.608Z,63.18
2018-06-19T09:26:26.547Z,63.19
2018-06-19T09:27:26.483Z,63.19
2018-06-19T09:28:26.503Z,63.2
2018-06-19T09:29:26.516Z,63.19
2018-06-19T09:30:26.423Z,63.21
2018-06-19T09:31:27.683Z,63.2
2018-06-19T09:32:26.517Z,63.17
2018-06-19T09:33:26.447Z,63.18
2018-06-19T09:34:26.393Z,63.19
2018-06-19T09:35:26.660Z,63.18
2018-06-19T09:36:26.565Z,63.22
2018-06-19T09:37:26.488Z,63.18
2018-06-19T09:38:26.558Z,63.19
2018-06-19T09:39:26.537Z,63.16
2018-06-19T09:40:26.673Z,63.17
2018-06-19T09:41:26.574Z,63.19
2018-06-19T09:42:26.529Z,63.19
2018-06-19T09:43:26.693Z,63.19
2018-06-19T09:44:26.541Z,63.19
2018-06-19T09:45:26.579Z,63.2
2018-06-19T09:46:26.631Z,63.22
2018-06-19T09:47:26.685Z,63.22
2018-06-19T09:48:26.599Z,63.18
2018-06-19T09:49:26.454Z,63.18
2018-06-19T09:50:26.563Z,63.2
2018-06-19T09:51:26.544Z,63.21
2018-06-19T09:52:27.034Z,63.19
2018-06-19T09:53:26.579Z,63.18
2018-06-19T09:54:26.715Z,63.22
2018-06-19T09:55:26.348Z,63.2
2018-06-19T09:56:26.423Z,63.35
2018-06-19T09:57:26.658Z,63.19
2018-06-19T09:58:27.131Z,63.23
2018-06-19T09:59:37.304Z,63.26
2018-06-19T10:00:26.561Z,63.27
2018-06-19T10:01:26.579Z,63.32
2018-06-19T10:02:26.596Z,63.25
2018-06-19T10:03:26.720Z,63.31
2018-06-19T10:04:26.505Z,63.35
2018-06-19T10:05:26.565Z,63.36
2018-06-19T10:06:26.984Z,63.36
2018-06-19T10:07:26.707Z,63.29
2018-06-19T10:08:26.547Z,63.26
2018-06-19T10:09:26.436Z,63.22
2018-06-19T10:10:26.676Z,63.23
2018-06-19T10:11:26.460Z,63.24
2018-06-19T10:12:26.560Z,63.25
2018-06-19T10:13:26.502Z,63.2
2018-06-19T10:14:26.502Z,63.22
2018-06-19T10:15:26.522Z,63.17
2018-06-19T10:16:26.400Z,63.2
2018-06-19T10:17:26.453Z,63.29
2018-06-19T10:18:26.501Z,63.27
2018-06-19T10:19:27.107Z,63.26
2018-06-19T10:20:26.510Z,63.21
2018-06-19T10:21:26.594Z,63.15
2018-06-19T10:22:26.598Z,63.14
2018-06-19T10:23:26.555Z,63.16
2018-06-19T10:24:26.502Z,63.14
2018-06-19T10:25:26.574Z,63.12
2018-06-19T10:26:26.599Z,63.16
2018-06-19T10:27:26.455Z,63.16
2018-06-19T10:28:26.666Z,63.17
2018-06-19T10:29:26.486Z,63.21
2018-06-19T10:30:26.648Z,63.15
2018-06-19T10:31:26.379Z,63.11
2018-06-19T10:32:26.440Z,63.15
2018-06-19T10:33:26.551Z,63.16
2018-06-19T10:34:26.623Z,63.29
2018-06-19T10:35:26.523Z,63.28
2018-06-19T10:36:26.432Z,63.3
2018-06-19T10:37:26.586Z,63.33
2018-06-19T10:38:26.424Z,63.25
2018-06-19T10:39:26.549Z,63.22
2018-06-19T10:40:26.510Z,63.23
2018-06-19T10:41:26.496Z,63.34
2018-06-19T10:42:26.666Z,63.23
2018-06-19T10:43:26.388Z,63.23
2018-06-19T10:44:26.601Z,63.26
2018-06-19T10:45:26.531Z,63.24
2018-06-19T10:46:26.516Z,63.3
2018-06-19T10:47:26.600Z,63.32
2018-06-19T10:48:26.525Z,63.33
2018-06-19T10:49:26.352Z,63.33
2018-06-19T10:50:26.457Z,63.31
2018-06-19T10:51:26.655Z,63.29
2018-06-19T10:52:26.760Z,63.32
2018-06-19T10:53:26.587Z,63.35
2018-06-19T10:54:26.597Z,63.28
2018-06-19T10:55:26.469Z,63.34
2018-06-19T10:56:26.626Z,63.27
2018-06-19T10:57:26.509Z,63.31
2018-06-19T10:58:26.418Z,63.26
2018-06-19T10:59:26.440Z,63.32
2018-06-19T11:00:26.586Z,63.26
2018-06-19T11:01:26.334Z,63.28
2018-06-19T11:02:26.517Z,63.31
2018-06-19T11:03:26.425Z,63.27
2018-06-19T11:04:26.413Z,63.29
2018-06-19T11:05:26.466Z,63.25
2018-06-19T11:06:26.552Z,63.23
2018-06-19T11:07:26.352Z,63.22
2018-06-19T11:08:26.363Z,63.22
2018-06-19T11:09:26.385Z,63.21
2018-06-19T11:10:26.576Z,63.24
2018-06-19T11:11:26.604Z,63.23
2018-06-19T11:12:26.603Z,63.25
2018-06-19T11:13:26.505Z,63.26
2018-06-19T11:14:26.619Z,63.23
2018-06-19T11:15:26.445Z,63.22
2018-06-19T11:16:26.364Z,63.21
2018-06-19T11:17:26.419Z,63.22
2018-06-19T11:18:27.008Z,63.27
2018-06-19T11:19:26.431Z,63.23
2018-06-19T11:20:26.466Z,63.21
2018-06-19T11:21:27.035Z,63.21
2018-06-19T11:22:26.376Z,63.18
2018-06-19T11:23:26.555Z,63.2
2018-06-19T11:24:26.445Z,63.25
2018-06-19T11:25:26.516Z,63.23
2018-06-19T11:26:26.572Z,63.23
2018-06-19T11:27:26.435Z,63.21
2018-06-19T11:28:26.541Z,63.24
2018-06-19T11:29:26.502Z,63.23
2018-06-19T11:30:26.632Z,63.22
2018-06-19T11:31:26.480Z,63.23
2018-06-19T11:32:26.607Z,63.22
2018-06-19T11:33:26.471Z,63.22
2018-06-19T11:34:26.506Z,63.21
2018-06-19T11:35:26.592Z,63.27
2018-06-19T11:36:26.594Z,63.22
2018-06-19T11:37:26.555Z,63.22
2018-06-19T11:38:26.875Z,63.19
2018-06-19T11:39:26.406Z,63.22
2018-06-19T11:40:26.627Z,63.18
2018-06-19T11:41:26.588Z,63.19
2018-06-19T11:42:26.425Z,63.2
2018-06-19T11:43:27.012Z,63.22
2018-06-19T11:44:26.368Z,63.14
2018-06-19T11:45:26.480Z,63.16
2018-06-19T11:46:26.559Z,63.19
2018-06-19T11:47:26.519Z,63.22
2018-06-19T11:48:26.423Z,63.16
2018-06-19T11:49:26.583Z,63.16
2018-06-19T11:50:26.661Z,63.18
2018-06-19T11:51:26.965Z,63.23
2018-06-19T11:52:26.490Z,63.21
2018-06-19T11:53:26.512Z,63.16
2018-06-19T11:54:26.344Z,63.15
2018-06-19T11:55:26.426Z,63.15
2018-06-19T11:56:26.352Z,63.15
2018-06-19T11:57:26.591Z,63.17
2018-06-19T11:58:26.530Z,63.17
2018-06-19T11:59:26.365Z,63.19
2018-06-19T12:00:26.415Z,63.17
2018-06-19T12:01:26.451Z,63.13
2018-06-19T12:02:26.523Z,63.13
2018-06-19T12:03:26.323Z,63.21
2018-06-19T12:04:26.399Z,63.17
2018-06-19T12:05:26.434Z,63.13
2018-06-19T12:06:26.358Z,63.16
2018-06-19T12:07:26.607Z,63.22
2018-06-19T12:08:26.632Z,63.17
2018-06-19T12:09:26.780Z,63.13
2018-06-19T12:10:26.473Z,63.16
2018-06-19T12:11:26.420Z,63.16
2018-06-19T12:12:26.585Z,63.12
2018-06-19T12:13:26.538Z,63.13
2018-06-19T12:14:26.423Z,63.11
2018-06-19T12:15:26.656Z,63.18
2018-06-19T12:16:26.622Z,63.13
2018-06-19T12:17:26.419Z,63.13
2018-06-19T12:18:26.425Z,63.15
2018-06-19T12:19:26.407Z,63.14
2018-06-19T12:20:26.565Z,63.16
2018-06-19T12:21:26.384Z,63.13
2018-06-19T12:22:26.447Z,63.1
2018-06-19T12:23:26.389Z,63.09
2018-06-19T12:24:26.406Z,63.09
2018-06-19T12:25:26.531Z,63.07
2018-06-19T12:26:26.892Z,63.08
2018-06-19T12:27:26.927Z,63.16
2018-06-19T12:28:26.488Z,63.18
2018-06-19T12:29:26.507Z,63.1
2018-06-19T12:30:26.360Z,63.12
2018-06-19T12:31:26.400Z,63.15
2018-06-19T12:32:26.441Z,63.15
2018-06-19T12:33:26.803Z,63.08
2018-06-19T12:34:26.401Z,63.12
2018-06-19T12:35:26.630Z,63.22
2018-06-19T12:36:26.848Z,63.16
2018-06-19T12:37:27.153Z,63.11
2018-06-19T12:38:26.611Z,63.14
2018-06-19T12:39:26.390Z,63.16
2018-06-19T12:40:26.393Z,63.15
2018-06-19T12:41:26.294Z,63.08
2018-06-19T12:42:26.426Z,63.08
2018-06-19T12:43:26.647Z,63.11
2018-06-19T12:44:26.463Z,63.13
2018-06-19T12:45:26.527Z,63.11
2018-06-19T12:46:26.314Z,63.08
2018-06-19T12:47:26.447Z,63.13
2018-06-19T12:48:26.384Z,63.16
2018-06-19T12:49:26.425Z,63.15
2018-06-19T12:50:26.376Z,63.11
2018-06-19T12:51:26.402Z,63.18
2018-06-19T12:52:26.524Z,63.16
2018-06-19T12:53:26.359Z,63.11
2018-06-19T12:54:26.682Z,63.07
2018-06-19T12:55:26.455Z,63.13